logo
Rechercher aéroport 
image banner adimage banner adimage banner ad
image banner ad

KEFK - Northeast Kingdom Intl

Situé à Newport, United States

ICAO - EFK, IATA - EFK

Données fournies par Airmate  

Information générale

Coordonnées: N44°53'17" W72°13'43"
Élévation : 933 feet MSL.
Variation magnétique : -17° East
Voir autres Aéroports à Vermont

Données opérationnelles

Special qualification required
Heure actuelle UTC:
Heure actuelle locale:
Météo
METAR: KEFK 251635Z AUTO 26010G22KT 10SM CLR 23/14 A2997 RMK AO2 T02340141
TAF: KEFK 251120Z 2512/2612 20006KT P6SM VCSH BKN050 FM251500 25008KT P6SM SCT045 FM260000 27006KT P6SM SCT030 FM260200 28007KT P6SM BKN030
Voir NOTAMs / SUP AIP / TFR affectant cet aéroport [VIEW]
Fréquences de communication: [VIEW]

Pistes:

Identifiant RWYQFULongueur (ft)Largeur (ft)SurfaceLDA (ft)
0530°3996100ASPH
23210°3996100ASPH
18160°5301100ASPH
36340°5301100ASPH

Coordonnées de l'aéroport

Adresse: Newport United States

Autres services d'aviation

Écoles de pilotage

Lakeview Aviation, Inc

Lakeview Aviation, Inc
dano@vtlink.com+1(802)334-5001

Vue satellite de KEFK